Time;durP1;ratioP1;P1;durP2;ratioP2;P2;SDS_P1;SDS_P2;PMS_P1;PMS_P2;Temp;Humidity;BMP_temperature;BMP_pressure;BME280_temperature;BME280_humidity;BME280_pressure;Samples;Min_cycle;Max_cycle;Signal;HPM_P1;HPM_P2
2021/08/28 00:05:18;;;;;;;6.03;1.10;;;15.40;99.90;;;;;;20511832;28;20054;-44
2021/08/28 00:15:19;;;;;;;1.63;0.60;;;15.50;99.90;;;;;;20527220;28;20050;-44
2021/08/28 00:25:21;;;;;;;5.72;1.30;;;15.50;99.90;;;;;;20516705;28;21412;-44
2021/08/28 00:35:22;;;;;;;4.18;1.20;;;15.50;99.90;;;;;;20521399;28;20074;-44
2021/08/28 00:45:28;;;;;;;3.33;1.05;;;15.70;99.90;;;;;;20519426;28;20047;-44
2021/08/28 00:55:31;;;;;;;3.67;0.90;;;15.60;99.90;;;;;;20507641;28;20068;-44
2021/08/28 01:05:48;;;;;;;1.63;0.45;;;15.60;99.90;;;;;;20520864;28;20399;-44
2021/08/28 01:15:52;;;;;;;3.28;0.93;;;15.50;99.90;;;;;;20512398;28;20035;-44
2021/08/28 01:25:55;;;;;;;4.22;1.00;;;15.50;99.90;;;;;;20506239;28;20051;-44
2021/08/28 01:35:57;;;;;;;3.40;0.85;;;15.60;99.90;;;;;;20506428;28;20047;-44
2021/08/28 01:45:58;;;;;;;1.85;0.73;;;15.60;99.90;;;;;;20496520;28;20058;-44
2021/08/28 01:56:00;;;;;;;3.13;1.05;;;15.70;99.90;;;;;;20505459;28;20285;-44
2021/08/28 02:06:03;;;;;;;10.55;1.25;;;15.70;99.90;;;;;;20525191;28;20050;-44
2021/08/28 02:16:13;;;;;;;10.85;1.15;;;15.80;99.90;;;;;;20526289;28;20038;-44
2021/08/28 02:26:19;;;;;;;3.53;1.55;;;15.90;99.90;;;;;;20568351;28;20061;-44
2021/08/28 02:36:21;;;;;;;3.38;1.00;;;16.00;99.90;;;;;;20498447;28;20785;-44
2021/08/28 02:46:25;;;;;;;7.85;0.73;;;16.00;99.90;;;;;;20491556;28;20047;-44
2021/08/28 02:56:29;;;;;;;13.27;0.95;;;16.00;99.90;;;;;;20480554;28;20483;-44
2021/08/28 03:06:31;;;;;;;3.08;1.15;;;16.00;99.90;;;;;;20478946;28;20055;-44
2021/08/28 03:16:36;;;;;;;3.85;1.25;;;15.90;99.90;;;;;;20478655;28;20051;-44
2021/08/28 03:26:39;;;;;;;3.03;1.20;;;15.80;99.90;;;;;;20476503;28;20415;-44
2021/08/28 03:36:41;;;;;;;4.47;1.00;;;15.80;99.90;;;;;;20478481;28;20382;-44
2021/08/28 03:46:45;;;;;;;1.38;0.63;;;15.80;99.90;;;;;;20478325;28;20058;-44
2021/08/28 03:56:46;;;;;;;2.17;1.10;;;15.70;99.90;;;;;;20488760;28;20066;-44
2021/08/28 04:06:47;;;;;;;2.25;0.70;;;15.80;99.90;;;;;;20484694;28;20321;-44
2021/08/28 04:16:48;;;;;;;6.45;1.10;;;15.60;99.90;;;;;;20474549;28;20498;-44
2021/08/28 04:26:49;;;;;;;2.10;1.02;;;15.70;99.90;;;;;;20466777;28;20081;-44
2021/08/28 04:36:50;;;;;;;2.65;1.10;;;15.70;99.90;;;;;;20463217;28;20586;-44
2021/08/28 04:46:51;;;;;;;6.60;1.48;;;15.80;99.90;;;;;;20462321;28;20484;-44
2021/08/28 04:56:53;;;;;;;4.93;1.48;;;15.80;99.90;;;;;;20469767;28;20046;-44
2021/08/28 05:06:54;;;;;;;2.60;1.40;;;15.80;99.90;;;;;;20466044;28;20070;-44
2021/08/28 05:16:55;;;;;;;2.17;0.80;;;15.80;99.90;;;;;;20473829;28;20472;-44
2021/08/28 05:26:56;;;;;;;4.15;0.75;;;15.80;99.90;;;;;;20492412;28;20566;-44
2021/08/28 05:36:58;;;;;;;2.30;1.20;;;15.90;99.90;;;;;;20469437;28;20054;-44
2021/08/28 05:46:59;;;;;;;5.05;1.75;;;16.00;99.90;;;;;;20512729;28;20124;-44
2021/08/28 05:57:00;;;;;;;2.92;1.13;;;16.30;99.90;;;;;;20517520;28;20245;-44
2021/08/28 06:07:08;;;;;;;4.60;1.65;;;16.40;99.90;;;;;;20534100;28;20142;-44
2021/08/28 06:17:09;;;;;;;2.80;1.25;;;16.40;99.90;;;;;;20522894;28;20039;-44
2021/08/28 06:27:10;;;;;;;2.53;0.88;;;16.50;99.90;;;;;;20558142;28;20047;-44
2021/08/28 06:37:11;;;;;;;3.42;1.30;;;16.80;99.90;;;;;;20492546;28;20399;-44
2021/08/28 06:47:13;;;;;;;4.40;1.45;;;16.90;99.90;;;;;;20425557;28;20055;-44
2021/08/28 06:57:14;;;;;;;3.42;1.33;;;17.00;99.90;;;;;;20415923;28;20512;-45
2021/08/28 07:07:15;;;;;;;4.97;0.88;;;17.20;99.90;;;;;;20457224;28;20047;-44
2021/08/28 07:17:16;;;;;;;3.92;1.63;;;17.20;99.90;;;;;;20425545;28;20047;-45
2021/08/28 07:27:17;;;;;;;4.25;2.15;;;17.40;99.90;;;;;;20425847;28;20062;-44
2021/08/28 07:37:18;;;;;;;7.93;1.15;;;17.70;99.90;;;;;;20444529;28;20047;-44
2021/08/28 07:47:19;;;;;;;2.50;1.00;;;17.80;99.90;;;;;;20502949;28;20043;-44
2021/08/28 07:57:20;;;;;;;4.15;0.95;;;17.70;99.90;;;;;;20513678;28;20035;-44
2021/08/28 08:07:21;;;;;;;3.60;1.52;;;18.00;99.90;;;;;;20518721;28;20374;-44
2021/08/28 08:17:22;;;;;;;2.72;1.05;;;17.90;99.90;;;;;;20510353;28;20062;-44
2021/08/28 08:27:23;;;;;;;5.03;1.42;;;17.80;99.90;;;;;;20512531;28;20035;-44
2021/08/28 08:37:24;;;;;;;3.00;1.00;;;18.00;99.90;;;;;;20511592;28;20043;-44
2021/08/28 08:47:27;;;;;;;3.20;1.00;;;18.00;99.90;;;;;;20530262;28;20046;-44
2021/08/28 08:57:29;;;;;;;3.00;1.00;;;18.30;99.90;;;;;;20490621;28;20479;-44
2021/08/28 09:07:31;;;;;;;3.80;1.05;;;18.10;99.90;;;;;;20500820;28;20061;-45
2021/08/28 09:17:32;;;;;;;3.03;1.10;;;18.30;99.90;;;;;;20500039;28;20122;-45
2021/08/28 09:27:46;;;;;;;3.67;1.88;;;18.50;99.90;;;;;;20516566;28;20503;-45
2021/08/28 09:37:53;;;;;;;4.32;1.20;;;19.00;99.90;;;;;;20527208;28;20403;-45
2021/08/28 09:47:55;;;;;;;3.22;1.15;;;19.30;99.90;;;;;;20530343;28;20039;-45
2021/08/28 09:57:59;;;;;;;4.07;1.15;;;19.60;99.90;;;;;;20527109;28;20043;-45
2021/08/28 10:08:02;;;;;;;2.15;0.80;;;19.80;99.90;;;;;;20538100;28;20053;-45
2021/08/28 10:18:07;;;;;;;4.40;0.90;;;19.90;99.90;;;;;;20542023;28;20506;-45
2021/08/28 10:28:11;;;;;;;4.88;1.05;;;20.30;99.90;;;;;;20498729;28;20046;-45
2021/08/28 10:38:12;;;;;;;2.72;1.27;;;20.20;99.90;;;;;;20535094;28;20051;-45
2021/08/28 10:48:14;;;;;;;1.73;0.82;;;20.20;99.90;;;;;;20529461;28;20051;-45
2021/08/28 10:58:17;;;;;;;2.00;0.80;;;20.00;99.90;;;;;;20525704;28;20030;-45
2021/08/28 11:08:18;;;;;;;1.48;0.80;;;20.10;99.90;;;;;;20519627;28;20058;-45
2021/08/28 11:18:39;;;;;;;2.38;0.88;;;20.00;99.90;;;;;;20524931;28;20042;-45
2021/08/28 11:28:41;;;;;;;2.60;1.00;;;19.60;99.90;;;;;;20521311;28;20043;-45
2021/08/28 11:38:51;;;;;;;8.48;1.08;;;19.30;99.90;;;;;;20522122;28;20668;-45
2021/08/28 11:48:54;;;;;;;2.30;0.90;;;19.90;99.90;;;;;;20520777;28;20055;-45
2021/08/28 11:58:58;;;;;;;2.55;1.38;;;20.30;99.90;;;;;;20518218;28;20045;-45
2021/08/28 12:09:00;;;;;;;7.47;1.27;;;20.20;99.90;;;;;;20514796;28;20062;-46
2021/08/28 12:19:01;;;;;;;2.20;0.70;;;20.20;99.90;;;;;;20533799;28;20028;-45
2021/08/28 12:29:03;;;;;;;2.05;0.73;;;20.40;99.90;;;;;;20513956;28;20491;-45
2021/08/28 12:39:07;;;;;;;2.13;0.63;;;20.90;99.90;;;;;;20533774;28;20050;-45
2021/08/28 12:49:14;;;;;;;1.77;0.60;;;20.90;99.90;;;;;;20512748;28;20055;-45
2021/08/28 12:59:20;;;;;;;2.13;0.57;;;21.10;99.90;;;;;;20519657;28;20978;-45
2021/08/28 13:09:21;;;;;;;1.75;0.50;;;21.30;99.90;;;;;;20544467;28;20050;-45
2021/08/28 13:19:33;;;;;;;2.25;0.80;;;21.40;99.90;;;;;;20532343;28;20054;-46
2021/08/28 13:29:37;;;;;;;1.98;0.70;;;21.30;99.90;;;;;;20536024;28;20603;-45
2021/08/28 13:39:40;;;;;;;2.03;0.60;;;21.50;99.90;;;;;;20481097;28;20047;-45
2021/08/28 13:49:41;;;;;;;1.63;0.80;;;21.50;99.90;;;;;;20447798;28;20594;-46
2021/08/28 13:59:43;;;;;;;4.30;1.83;;;21.80;99.90;;;;;;20446444;28;20058;-45
2021/08/28 14:09:44;;;;;;;1.83;0.70;;;21.60;99.90;;;;;;20446411;28;20043;-45
2021/08/28 14:19:46;;;;;;;3.00;0.70;;;21.60;99.90;;;;;;20471471;28;20048;-45
2021/08/28 14:29:47;;;;;;;3.97;0.73;;;20.90;99.90;;;;;;20468182;28;20057;-45
2021/08/28 14:39:48;;;;;;;2.22;0.70;;;20.30;99.90;;;;;;20491525;28;20505;-45
2021/08/28 14:49:49;;;;;;;1.60;0.50;;;19.70;99.90;;;;;;20525159;28;20066;-45
2021/08/28 14:59:50;;;;;;;1.73;0.63;;;19.30;99.90;;;;;;20511558;28;20043;-45
2021/08/28 15:09:52;;;;;;;2.28;0.40;;;19.30;99.90;;;;;;20522964;28;20058;-45
2021/08/28 15:19:53;;;;;;;1.40;1.00;;;19.40;99.90;;;;;;20512205;28;20050;-45
2021/08/28 15:29:55;;;;;;;3.08;0.80;;;19.50;99.90;;;;;;20514971;28;20390;-45
2021/08/28 15:39:56;;;;;;;2.15;0.50;;;19.40;99.90;;;;;;20509794;28;20422;-45
2021/08/28 15:49:57;;;;;;;2.42;0.70;;;19.30;99.90;;;;;;20508964;28;20058;-45
2021/08/28 15:59:58;;;;;;;2.58;0.57;;;19.30;99.90;;;;;;20513004;28;20040;-45
2021/08/28 16:09:59;;;;;;;1.80;0.95;;;19.30;99.90;;;;;;20516622;28;20547;-45
2021/08/28 16:20:00;;;;;;;3.42;0.50;;;19.00;99.90;;;;;;20496386;28;20035;-45
2021/08/28 16:30:02;;;;;;;1.77;0.57;;;18.80;99.90;;;;;;20485008;28;20042;-45
2021/08/28 16:40:04;;;;;;;2.95;0.60;;;18.90;99.90;;;;;;20484763;28;20050;-45
2021/08/28 16:50:06;;;;;;;0.90;0.30;;;18.60;99.90;;;;;;20446869;28;20377;-45
2021/08/28 17:00:09;;;;;;;2.35;1.05;;;18.40;99.90;;;;;;20456218;28;20051;-45
2021/08/28 17:10:11;;;;;;;2.03;0.60;;;18.30;99.90;;;;;;20459098;28;20544;-45
2021/08/28 17:20:17;;;;;;;2.38;1.23;;;18.20;99.90;;;;;;20457537;28;20525;-45
2021/08/28 17:30:19;;;;;;;4.60;0.50;;;18.10;99.90;;;;;;20451123;28;20058;-45
2021/08/28 17:40:20;;;;;;;0.70;0.32;;;18.20;99.90;;;;;;20456889;28;20046;-45
2021/08/28 17:50:24;;;;;;;2.97;1.08;;;18.00;99.90;;;;;;20478978;28;20240;-45
2021/08/28 18:00:26;;;;;;;1.45;0.57;;;17.80;99.90;;;;;;20481658;28;20050;-45
2021/08/28 18:10:27;;;;;;;1.65;0.40;;;17.80;99.90;;;;;;20487122;28;20498;-45
2021/08/28 18:20:28;;;;;;;2.88;0.70;;;17.50;99.90;;;;;;20483464;28;20051;-45
2021/08/28 18:30:30;;;;;;;2.38;0.63;;;17.40;99.90;;;;;;20491754;28;20447;-45
2021/08/28 18:40:31;;;;;;;3.65;0.80;;;17.30;99.90;;;;;;20507880;28;20043;-45
2021/08/28 18:50:32;;;;;;;4.35;0.65;;;17.20;99.90;;;;;;20526984;28;20533;-45
2021/08/28 19:00:33;;;;;;;1.42;0.60;;;17.20;99.90;;;;;;20520956;28;20054;-45
2021/08/28 19:10:35;;;;;;;3.03;0.70;;;17.10;99.90;;;;;;20526143;28;20397;-45
2021/08/28 19:20:36;;;;;;;1.58;0.55;;;17.10;99.90;;;;;;20525453;28;20061;-45
2021/08/28 19:30:38;;;;;;;3.78;0.90;;;17.20;99.90;;;;;;20524644;28;20041;-45
2021/08/28 19:40:39;;;;;;;5.82;0.68;;;17.10;99.90;;;;;;20539777;28;20057;-45
2021/08/28 19:50:40;;;;;;;7.45;0.93;;;17.10;99.90;;;;;;20537863;28;20317;-45
2021/08/28 20:00:41;;;;;;;1.88;0.60;;;17.00;99.90;;;;;;20499761;28;20062;-45
2021/08/28 20:10:42;;;;;;;3.83;0.50;;;16.90;99.90;;;;;;20524325;28;20039;-45
2021/08/28 20:20:44;;;;;;;1.08;0.60;;;16.90;99.90;;;;;;20533916;28;20039;-45
2021/08/28 20:30:45;;;;;;;1.13;0.55;;;16.80;99.90;;;;;;20537250;28;20076;-45
2021/08/28 20:40:46;;;;;;;2.28;0.40;;;16.80;99.90;;;;;;20469943;28;20066;-45
2021/08/28 20:50:48;;;;;;;1.92;0.98;;;16.70;99.90;;;;;;20442221;28;20047;-45
2021/08/28 21:00:50;;;;;;;2.90;0.98;;;16.60;99.90;;;;;;20442076;28;20039;-45
2021/08/28 21:10:51;;;;;;;3.22;0.70;;;16.50;99.90;;;;;;20413487;28;20046;-45
2021/08/28 21:20:52;;;;;;;2.05;0.95;;;16.40;99.90;;;;;;20449591;28;20502;-45
2021/08/28 21:30:53;;;;;;;2.45;0.77;;;16.40;99.90;;;;;;20453895;28;20050;-45
2021/08/28 21:40:54;;;;;;;1.55;0.70;;;16.20;99.90;;;;;;20468151;28;20365;-45
2021/08/28 21:50:55;;;;;;;3.65;0.70;;;16.30;99.90;;;;;;20477675;28;20039;-45
2021/08/28 22:00:57;;;;;;;2.17;0.55;;;16.30;99.90;;;;;;20482959;28;20039;-45
2021/08/28 22:10:58;;;;;;;2.30;0.85;;;16.10;99.90;;;;;;20485462;28;20039;-45
2021/08/28 22:21:01;;;;;;;1.52;0.70;;;16.00;99.90;;;;;;20511076;28;20058;-45
2021/08/28 22:31:02;;;;;;;3.65;0.80;;;15.90;99.90;;;;;;20512257;28;20051;-45
2021/08/28 22:41:04;;;;;;;3.08;0.60;;;15.90;99.90;;;;;;20514295;28;20051;-45
2021/08/28 22:51:05;;;;;;;2.47;0.75;;;15.90;99.90;;;;;;20521048;28;20069;-45
2021/08/28 23:01:07;;;;;;;1.65;0.80;;;15.90;99.90;;;;;;20523908;28;20064;-45
2021/08/28 23:11:09;;;;;;;2.50;1.10;;;15.90;99.90;;;;;;20503442;28;20054;-45
2021/08/28 23:21:12;;;;;;;5.60;0.90;;;15.90;99.90;;;;;;20521799;28;20077;-45
2021/08/28 23:31:13;;;;;;;2.58;0.75;;;15.90;99.90;;;;;;20521606;28;20505;-45
2021/08/28 23:41:14;;;;;;;2.00;1.23;;;15.90;99.90;;;;;;20484656;28;20056;-45
2021/08/28 23:51:15;;;;;;;2.58;0.57;;;15.90;99.90;;;;;;20450772;28;20155;-45
